sensor_id;sensor_type;location;lat;lon;timestamp;P1;durP1;ratioP1;P2;durP2;ratioP2
13303;SDS011;6720;51.958;4.540;2023-12-22T00:00:08;14.53;;;5.10;;
13303;SDS011;6720;51.958;4.540;2023-12-22T00:02:33;17.70;;;4.50;;
13303;SDS011;6720;51.958;4.540;2023-12-22T00:04:59;15.30;;;4.70;;
13303;SDS011;6720;51.958;4.540;2023-12-22T00:07:24;16.93;;;4.57;;
13303;SDS011;6720;51.958;4.540;2023-12-22T00:09:50;15.77;;;5.00;;
13303;SDS011;6720;51.958;4.540;2023-12-22T00:12:15;19.17;;;4.97;;
13303;SDS011;6720;51.958;4.540;2023-12-22T00:14:41;14.97;;;4.60;;
13303;SDS011;6720;51.958;4.540;2023-12-22T00:17:07;20.77;;;5.47;;
13303;SDS011;6720;51.958;4.540;2023-12-22T00:19:32;19.83;;;4.97;;
13303;SDS011;6720;51.958;4.540;2023-12-22T00:21:58;16.40;;;5.50;;
13303;SDS011;6720;51.958;4.540;2023-12-22T00:24:23;15.30;;;4.10;;
13303;SDS011;6720;51.958;4.540;2023-12-22T00:26:49;19.83;;;5.57;;
13303;SDS011;6720;51.958;4.540;2023-12-22T00:29:14;19.83;;;5.23;;
13303;SDS011;6720;51.958;4.540;2023-12-22T00:31:40;19.30;;;4.70;;
13303;SDS011;6720;51.958;4.540;2023-12-22T00:34:05;17.27;;;5.10;;
13303;SDS011;6720;51.958;4.540;2023-12-22T00:36:31;18.50;;;4.70;;
13303;SDS011;6720;51.958;4.540;2023-12-22T00:38:56;12.87;;;4.50;;
13303;SDS011;6720;51.958;4.540;2023-12-22T00:41:21;17.80;;;5.70;;
13303;SDS011;6720;51.958;4.540;2023-12-22T00:43:47;12.73;;;4.10;;
13303;SDS011;6720;51.958;4.540;2023-12-22T00:46:13;18.40;;;4.30;;
13303;SDS011;6720;51.958;4.540;2023-12-22T00:48:38;15.67;;;4.50;;
13303;SDS011;6720;51.958;4.540;2023-12-22T00:51:05;19.13;;;7.03;;
13303;SDS011;6720;51.958;4.540;2023-12-22T00:53:32;16.80;;;4.77;;
13303;SDS011;6720;51.958;4.540;2023-12-22T00:55:59;20.03;;;4.77;;
13303;SDS011;6720;51.958;4.540;2023-12-22T00:58:24;14.57;;;5.03;;
13303;SDS011;6720;51.958;4.540;2023-12-22T01:00:50;22.73;;;4.97;;
13303;SDS011;6720;51.958;4.540;2023-12-22T01:03:15;18.90;;;4.57;;
13303;SDS011;6720;51.958;4.540;2023-12-22T01:05:41;21.73;;;5.77;;
13303;SDS011;6720;51.958;4.540;2023-12-22T01:08:06;16.27;;;5.00;;
13303;SDS011;6720;51.958;4.540;2023-12-22T01:10:32;14.33;;;4.57;;
13303;SDS011;6720;51.958;4.540;2023-12-22T01:12:57;15.70;;;4.33;;
13303;SDS011;6720;51.958;4.540;2023-12-22T01:15:23;14.90;;;4.73;;
13303;SDS011;6720;51.958;4.540;2023-12-22T01:17:48;17.20;;;4.43;;
13303;SDS011;6720;51.958;4.540;2023-12-22T01:20:14;10.07;;;4.33;;
13303;SDS011;6720;51.958;4.540;2023-12-22T01:22:39;14.67;;;3.97;;
13303;SDS011;6720;51.958;4.540;2023-12-22T01:25:04;11.33;;;3.90;;
13303;SDS011;6720;51.958;4.540;2023-12-22T01:27:30;14.77;;;4.13;;
13303;SDS011;6720;51.958;4.540;2023-12-22T01:29:56;15.37;;;5.10;;
13303;SDS011;6720;51.958;4.540;2023-12-22T01:32:22;13.90;;;4.77;;
13303;SDS011;6720;51.958;4.540;2023-12-22T01:34:47;17.57;;;4.57;;
13303;SDS011;6720;51.958;4.540;2023-12-22T01:37:12;13.20;;;3.90;;
13303;SDS011;6720;51.958;4.540;2023-12-22T01:39:38;16.87;;;4.07;;
13303;SDS011;6720;51.958;4.540;2023-12-22T01:42:03;16.33;;;3.97;;
13303;SDS011;6720;51.958;4.540;2023-12-22T01:44:29;13.10;;;4.93;;
13303;SDS011;6720;51.958;4.540;2023-12-22T01:46:54;9.67;;;4.23;;
13303;SDS011;6720;51.958;4.540;2023-12-22T01:49:21;15.90;;;4.10;;
13303;SDS011;6720;51.958;4.540;2023-12-22T01:51:47;15.63;;;4.07;;
13303;SDS011;6720;51.958;4.540;2023-12-22T01:54:13;16.03;;;4.87;;
13303;SDS011;6720;51.958;4.540;2023-12-22T01:56:40;16.80;;;5.43;;
13303;SDS011;6720;51.958;4.540;2023-12-22T01:59:07;18.63;;;5.33;;
13303;SDS011;6720;51.958;4.540;2023-12-22T02:01:33;18.00;;;5.50;;
13303;SDS011;6720;51.958;4.540;2023-12-22T02:03:58;14.53;;;5.70;;
13303;SDS011;6720;51.958;4.540;2023-12-22T02:06:36;15.77;;;4.60;;
13303;SDS011;6720;51.958;4.540;2023-12-22T02:09:33;17.63;;;5.63;;
13303;SDS011;6720;51.958;4.540;2023-12-22T02:12:17;17.37;;;4.63;;
13303;SDS011;6720;51.958;4.540;2023-12-22T02:14:54;15.77;;;4.53;;
13303;SDS011;6720;51.958;4.540;2023-12-22T02:20:48;13.43;;;4.27;;
13303;SDS011;6720;51.958;4.540;2023-12-22T02:23:26;16.27;;;4.10;;
13303;SDS011;6720;51.958;4.540;2023-12-22T02:26:25;14.40;;;3.80;;
13303;SDS011;6720;51.958;4.540;2023-12-22T02:29:22;14.67;;;4.07;;
13303;SDS011;6720;51.958;4.540;2023-12-22T02:32:07;14.53;;;3.63;;
13303;SDS011;6720;51.958;4.540;2023-12-22T02:35:15;13.10;;;4.00;;
13303;SDS011;6720;51.958;4.540;2023-12-22T02:41:23;13.30;;;3.67;;
13303;SDS011;6720;51.958;4.540;2023-12-22T02:43:48;12.43;;;3.97;;
13303;SDS011;6720;51.958;4.540;2023-12-22T02:46:14;13.87;;;4.17;;
13303;SDS011;6720;51.958;4.540;2023-12-22T02:48:40;11.93;;;3.80;;
13303;SDS011;6720;51.958;4.540;2023-12-22T02:51:06;14.87;;;4.40;;
13303;SDS011;6720;51.958;4.540;2023-12-22T02:53:31;12.87;;;3.83;;
13303;SDS011;6720;51.958;4.540;2023-12-22T02:55:57;13.13;;;4.30;;
13303;SDS011;6720;51.958;4.540;2023-12-22T02:58:22;9.97;;;3.73;;
13303;SDS011;6720;51.958;4.540;2023-12-22T03:00:47;16.47;;;4.23;;
13303;SDS011;6720;51.958;4.540;2023-12-22T03:03:13;10.40;;;3.60;;
13303;SDS011;6720;51.958;4.540;2023-12-22T03:05:38;14.93;;;4.30;;
13303;SDS011;6720;51.958;4.540;2023-12-22T03:08:04;12.00;;;4.37;;
13303;SDS011;6720;51.958;4.540;2023-12-22T03:10:29;15.87;;;4.40;;
13303;SDS011;6720;51.958;4.540;2023-12-22T03:12:55;10.00;;;3.83;;
13303;SDS011;6720;51.958;4.540;2023-12-22T03:15:33;17.07;;;4.87;;
13303;SDS011;6720;51.958;4.540;2023-12-22T03:18:31;14.33;;;4.63;;
13303;SDS011;6720;51.958;4.540;2023-12-22T03:21:28;17.23;;;4.40;;
13303;SDS011;6720;51.958;4.540;2023-12-22T03:24:14;14.00;;;4.23;;
13303;SDS011;6720;51.958;4.540;2023-12-22T03:26:39;18.97;;;4.70;;
13303;SDS011;6720;51.958;4.540;2023-12-22T03:29:05;15.73;;;4.43;;
13303;SDS011;6720;51.958;4.540;2023-12-22T03:31:30;12.67;;;3.90;;
13303;SDS011;6720;51.958;4.540;2023-12-22T03:33:56;12.37;;;3.80;;
13303;SDS011;6720;51.958;4.540;2023-12-22T03:36:21;15.17;;;4.10;;
13303;SDS011;6720;51.958;4.540;2023-12-22T03:38:47;15.67;;;4.87;;
13303;SDS011;6720;51.958;4.540;2023-12-22T03:41:12;16.07;;;5.10;;
13303;SDS011;6720;51.958;4.540;2023-12-22T03:43:38;17.27;;;5.30;;
13303;SDS011;6720;51.958;4.540;2023-12-22T03:46:03;16.77;;;4.67;;
13303;SDS011;6720;51.958;4.540;2023-12-22T03:48:28;12.07;;;4.27;;
13303;SDS011;6720;51.958;4.540;2023-12-22T03:50:54;13.77;;;3.63;;
13303;SDS011;6720;51.958;4.540;2023-12-22T03:53:19;14.93;;;4.37;;
13303;SDS011;6720;51.958;4.540;2023-12-22T03:55:45;13.00;;;4.30;;
13303;SDS011;6720;51.958;4.540;2023-12-22T03:58:10;15.07;;;4.47;;
13303;SDS011;6720;51.958;4.540;2023-12-22T04:00:35;18.33;;;4.60;;
13303;SDS011;6720;51.958;4.540;2023-12-22T04:03:01;10.10;;;3.83;;
13303;SDS011;6720;51.958;4.540;2023-12-22T04:05:27;16.07;;;4.73;;
13303;SDS011;6720;51.958;4.540;2023-12-22T04:07:52;16.20;;;3.80;;
13303;SDS011;6720;51.958;4.540;2023-12-22T04:10:18;13.53;;;4.03;;
13303;SDS011;6720;51.958;4.540;2023-12-22T04:12:44;10.37;;;3.50;;
13303;SDS011;6720;51.958;4.540;2023-12-22T04:15:09;13.70;;;3.97;;
13303;SDS011;6720;51.958;4.540;2023-12-22T04:17:35;10.23;;;3.33;;
13303;SDS011;6720;51.958;4.540;2023-12-22T04:20:00;11.53;;;3.57;;
13303;SDS011;6720;51.958;4.540;2023-12-22T04:22:26;13.73;;;4.50;;
13303;SDS011;6720;51.958;4.540;2023-12-22T04:24:52;16.90;;;4.20;;
13303;SDS011;6720;51.958;4.540;2023-12-22T04:27:17;13.20;;;3.43;;
13303;SDS011;6720;51.958;4.540;2023-12-22T04:29:42;12.03;;;3.60;;
13303;SDS011;6720;51.958;4.540;2023-12-22T04:32:08;12.13;;;3.77;;
13303;SDS011;6720;51.958;4.540;2023-12-22T04:34:34;15.07;;;4.00;;
13303;SDS011;6720;51.958;4.540;2023-12-22T04:36:59;11.87;;;3.93;;
13303;SDS011;6720;51.958;4.540;2023-12-22T04:39:25;15.20;;;3.90;;
13303;SDS011;6720;51.958;4.540;2023-12-22T04:41:50;12.93;;;3.90;;
13303;SDS011;6720;51.958;4.540;2023-12-22T04:44:15;14.77;;;4.50;;
13303;SDS011;6720;51.958;4.540;2023-12-22T04:46:41;11.50;;;3.57;;
13303;SDS011;6720;51.958;4.540;2023-12-22T04:49:06;14.10;;;4.17;;
13303;SDS011;6720;51.958;4.540;2023-12-22T04:51:32;14.20;;;3.60;;
13303;SDS011;6720;51.958;4.540;2023-12-22T04:53:57;10.77;;;3.77;;
13303;SDS011;6720;51.958;4.540;2023-12-22T04:56:23;12.60;;;4.13;;
13303;SDS011;6720;51.958;4.540;2023-12-22T04:58:49;18.47;;;5.00;;
13303;SDS011;6720;51.958;4.540;2023-12-22T05:01:15;15.67;;;4.17;;
13303;SDS011;6720;51.958;4.540;2023-12-22T05:03:40;16.70;;;4.60;;
13303;SDS011;6720;51.958;4.540;2023-12-22T05:06:06;17.73;;;4.60;;
13303;SDS011;6720;51.958;4.540;2023-12-22T05:08:31;19.60;;;4.47;;
13303;SDS011;6720;51.958;4.540;2023-12-22T05:10:56;17.10;;;4.50;;
13303;SDS011;6720;51.958;4.540;2023-12-22T05:13:22;18.47;;;4.97;;
13303;SDS011;6720;51.958;4.540;2023-12-22T05:15:47;16.80;;;4.63;;
13303;SDS011;6720;51.958;4.540;2023-12-22T05:18:13;14.30;;;4.57;;
13303;SDS011;6720;51.958;4.540;2023-12-22T05:20:38;14.73;;;4.50;;
13303;SDS011;6720;51.958;4.540;2023-12-22T05:23:03;20.50;;;5.57;;
13303;SDS011;6720;51.958;4.540;2023-12-22T05:25:29;16.83;;;5.07;;
13303;SDS011;6720;51.958;4.540;2023-12-22T05:27:54;26.63;;;5.93;;
13303;SDS011;6720;51.958;4.540;2023-12-22T05:30:19;21.53;;;6.73;;
13303;SDS011;6720;51.958;4.540;2023-12-22T05:32:45;25.13;;;6.80;;
13303;SDS011;6720;51.958;4.540;2023-12-22T05:35:10;27.33;;;7.60;;
13303;SDS011;6720;51.958;4.540;2023-12-22T05:37:36;24.03;;;5.87;;
13303;SDS011;6720;51.958;4.540;2023-12-22T05:40:01;17.87;;;6.30;;
13303;SDS011;6720;51.958;4.540;2023-12-22T05:42:27;24.27;;;5.83;;
13303;SDS011;6720;51.958;4.540;2023-12-22T05:44:52;22.67;;;7.17;;
13303;SDS011;6720;51.958;4.540;2023-12-22T05:47:18;22.03;;;5.93;;
13303;SDS011;6720;51.958;4.540;2023-12-22T05:49:43;29.97;;;7.03;;
13303;SDS011;6720;51.958;4.540;2023-12-22T05:52:09;25.57;;;6.97;;
13303;SDS011;6720;51.958;4.540;2023-12-22T05:54:35;24.30;;;7.23;;
13303;SDS011;6720;51.958;4.540;2023-12-22T05:57:00;30.47;;;7.60;;
13303;SDS011;6720;51.958;4.540;2023-12-22T05:59:30;27.53;;;7.73;;
13303;SDS011;6720;51.958;4.540;2023-12-22T06:01:57;29.80;;;7.70;;
13303;SDS011;6720;51.958;4.540;2023-12-22T06:04:23;26.73;;;7.30;;
13303;SDS011;6720;51.958;4.540;2023-12-22T06:06:49;29.70;;;7.67;;
13303;SDS011;6720;51.958;4.540;2023-12-22T06:09:15;27.07;;;7.70;;
13303;SDS011;6720;51.958;4.540;2023-12-22T06:11:42;27.03;;;7.57;;
13303;SDS011;6720;51.958;4.540;2023-12-22T06:14:07;30.40;;;8.03;;
13303;SDS011;6720;51.958;4.540;2023-12-22T06:16:33;28.37;;;6.77;;
13303;SDS011;6720;51.958;4.540;2023-12-22T06:18:58;32.20;;;7.53;;
13303;SDS011;6720;51.958;4.540;2023-12-22T06:21:23;32.77;;;8.17;;
13303;SDS011;6720;51.958;4.540;2023-12-22T06:23:49;29.97;;;7.80;;
13303;SDS011;6720;51.958;4.540;2023-12-22T06:26:15;26.07;;;8.47;;
13303;SDS011;6720;51.958;4.540;2023-12-22T06:28:40;31.87;;;7.53;;
13303;SDS011;6720;51.958;4.540;2023-12-22T06:31:06;38.93;;;8.23;;
13303;SDS011;6720;51.958;4.540;2023-12-22T06:33:32;31.07;;;7.33;;
13303;SDS011;6720;51.958;4.540;2023-12-22T06:35:58;30.53;;;8.47;;
13303;SDS011;6720;51.958;4.540;2023-12-22T06:38:23;27.80;;;7.93;;
13303;SDS011;6720;51.958;4.540;2023-12-22T06:40:49;30.43;;;8.53;;
13303;SDS011;6720;51.958;4.540;2023-12-22T06:43:15;30.40;;;8.40;;
13303;SDS011;6720;51.958;4.540;2023-12-22T06:45:41;29.47;;;8.10;;
13303;SDS011;6720;51.958;4.540;2023-12-22T06:48:06;30.80;;;8.00;;
13303;SDS011;6720;51.958;4.540;2023-12-22T06:50:32;25.63;;;7.67;;
13303;SDS011;6720;51.958;4.540;2023-12-22T06:52:57;35.30;;;8.10;;
13303;SDS011;6720;51.958;4.540;2023-12-22T06:55:23;24.60;;;6.40;;
13303;SDS011;6720;51.958;4.540;2023-12-22T06:57:49;22.80;;;6.33;;
13303;SDS011;6720;51.958;4.540;2023-12-22T07:00:14;23.97;;;6.70;;
13303;SDS011;6720;51.958;4.540;2023-12-22T07:02:40;29.63;;;7.50;;
13303;SDS011;6720;51.958;4.540;2023-12-22T07:07:34;24.40;;;6.27;;
13303;SDS011;6720;51.958;4.540;2023-12-22T07:10:00;29.17;;;7.57;;
13303;SDS011;6720;51.958;4.540;2023-12-22T07:12:26;27.20;;;6.83;;
13303;SDS011;6720;51.958;4.540;2023-12-22T07:14:51;30.70;;;7.07;;
13303;SDS011;6720;51.958;4.540;2023-12-22T07:17:16;22.10;;;6.57;;
13303;SDS011;6720;51.958;4.540;2023-12-22T07:19:42;24.40;;;6.27;;
13303;SDS011;6720;51.958;4.540;2023-12-22T07:22:07;25.60;;;6.23;;
13303;SDS011;6720;51.958;4.540;2023-12-22T07:24:33;25.03;;;7.23;;
13303;SDS011;6720;51.958;4.540;2023-12-22T07:26:58;23.67;;;7.47;;
13303;SDS011;6720;51.958;4.540;2023-12-22T07:29:24;23.13;;;5.93;;
13303;SDS011;6720;51.958;4.540;2023-12-22T07:31:49;19.40;;;4.83;;
13303;SDS011;6720;51.958;4.540;2023-12-22T07:34:15;21.27;;;6.23;;
13303;SDS011;6720;51.958;4.540;2023-12-22T07:36:41;25.10;;;5.97;;
13303;SDS011;6720;51.958;4.540;2023-12-22T07:39:07;22.73;;;6.07;;
13303;SDS011;6720;51.958;4.540;2023-12-22T07:41:34;18.90;;;6.07;;
13303;SDS011;6720;51.958;4.540;2023-12-22T07:44:01;21.40;;;5.30;;
13303;SDS011;6720;51.958;4.540;2023-12-22T07:46:27;28.30;;;6.53;;
13303;SDS011;6720;51.958;4.540;2023-12-22T07:48:53;19.13;;;5.10;;
13303;SDS011;6720;51.958;4.540;2023-12-22T07:51:20;20.90;;;5.50;;
13303;SDS011;6720;51.958;4.540;2023-12-22T07:53:45;20.13;;;4.70;;
13303;SDS011;6720;51.958;4.540;2023-12-22T07:56:11;20.67;;;4.70;;
13303;SDS011;6720;51.958;4.540;2023-12-22T07:58:37;15.03;;;4.50;;
13303;SDS011;6720;51.958;4.540;2023-12-22T08:01:03;18.27;;;4.27;;
13303;SDS011;6720;51.958;4.540;2023-12-22T08:03:29;13.13;;;3.73;;
13303;SDS011;6720;51.958;4.540;2023-12-22T08:05:54;18.20;;;5.20;;
13303;SDS011;6720;51.958;4.540;2023-12-22T08:08:20;17.43;;;4.63;;
13303;SDS011;6720;51.958;4.540;2023-12-22T08:10:46;17.23;;;4.90;;
13303;SDS011;6720;51.958;4.540;2023-12-22T08:13:11;14.77;;;4.63;;
13303;SDS011;6720;51.958;4.540;2023-12-22T08:15:37;13.27;;;4.10;;
13303;SDS011;6720;51.958;4.540;2023-12-22T08:18:02;19.03;;;4.67;;
13303;SDS011;6720;51.958;4.540;2023-12-22T08:20:29;13.07;;;3.90;;
13303;SDS011;6720;51.958;4.540;2023-12-22T08:22:54;14.93;;;4.93;;
13303;SDS011;6720;51.958;4.540;2023-12-22T08:25:20;15.30;;;4.07;;
13303;SDS011;6720;51.958;4.540;2023-12-22T08:27:45;10.87;;;3.57;;
13303;SDS011;6720;51.958;4.540;2023-12-22T08:30:12;12.10;;;3.80;;
13303;SDS011;6720;51.958;4.540;2023-12-22T08:32:38;9.73;;;3.37;;
13303;SDS011;6720;51.958;4.540;2023-12-22T08:35:04;10.37;;;3.67;;
13303;SDS011;6720;51.958;4.540;2023-12-22T08:37:30;10.30;;;3.00;;
13303;SDS011;6720;51.958;4.540;2023-12-22T08:39:56;16.40;;;5.10;;
13303;SDS011;6720;51.958;4.540;2023-12-22T08:42:22;10.63;;;3.40;;
13303;SDS011;6720;51.958;4.540;2023-12-22T08:44:48;11.47;;;3.20;;
13303;SDS011;6720;51.958;4.540;2023-12-22T08:47:14;10.83;;;3.07;;
13303;SDS011;6720;51.958;4.540;2023-12-22T08:49:39;11.23;;;3.53;;
13303;SDS011;6720;51.958;4.540;2023-12-22T08:52:05;10.53;;;3.17;;
13303;SDS011;6720;51.958;4.540;2023-12-22T08:54:31;8.93;;;2.90;;
13303;SDS011;6720;51.958;4.540;2023-12-22T08:56:56;9.77;;;3.27;;
13303;SDS011;6720;51.958;4.540;2023-12-22T08:59:21;9.67;;;3.13;;
13303;SDS011;6720;51.958;4.540;2023-12-22T09:01:47;8.97;;;2.80;;
13303;SDS011;6720;51.958;4.540;2023-12-22T09:04:12;15.43;;;6.43;;
13303;SDS011;6720;51.958;4.540;2023-12-22T09:06:38;7.67;;;2.90;;
13303;SDS011;6720;51.958;4.540;2023-12-22T09:09:04;9.03;;;2.73;;
13303;SDS011;6720;51.958;4.540;2023-12-22T09:11:30;11.80;;;3.27;;
13303;SDS011;6720;51.958;4.540;2023-12-22T09:13:55;14.17;;;3.27;;
13303;SDS011;6720;51.958;4.540;2023-12-22T09:16:21;8.47;;;2.67;;
13303;SDS011;6720;51.958;4.540;2023-12-22T09:18:48;11.23;;;3.03;;
13303;SDS011;6720;51.958;4.540;2023-12-22T09:21:14;4.90;;;2.27;;
13303;SDS011;6720;51.958;4.540;2023-12-22T09:23:40;8.13;;;2.70;;
13303;SDS011;6720;51.958;4.540;2023-12-22T09:26:09;9.40;;;2.97;;
13303;SDS011;6720;51.958;4.540;2023-12-22T09:28:35;7.10;;;2.47;;
13303;SDS011;6720;51.958;4.540;2023-12-22T09:31:00;8.63;;;2.97;;
13303;SDS011;6720;51.958;4.540;2023-12-22T09:33:26;7.43;;;2.60;;
13303;SDS011;6720;51.958;4.540;2023-12-22T09:35:51;11.40;;;2.70;;
13303;SDS011;6720;51.958;4.540;2023-12-22T09:38:17;12.50;;;2.87;;
13303;SDS011;6720;51.958;4.540;2023-12-22T09:40:42;10.93;;;3.20;;
13303;SDS011;6720;51.958;4.540;2023-12-22T09:43:08;10.23;;;2.87;;
13303;SDS011;6720;51.958;4.540;2023-12-22T09:45:34;7.63;;;2.83;;
13303;SDS011;6720;51.958;4.540;2023-12-22T09:48:00;7.53;;;2.80;;
13303;SDS011;6720;51.958;4.540;2023-12-22T09:50:26;8.50;;;2.70;;
13303;SDS011;6720;51.958;4.540;2023-12-22T09:52:52;8.40;;;2.80;;
13303;SDS011;6720;51.958;4.540;2023-12-22T09:55:17;6.60;;;2.93;;
13303;SDS011;6720;51.958;4.540;2023-12-22T09:57:49;7.77;;;2.70;;
13303;SDS011;6720;51.958;4.540;2023-12-22T10:00:15;8.50;;;3.23;;
13303;SDS011;6720;51.958;4.540;2023-12-22T10:02:44;10.33;;;3.10;;
13303;SDS011;6720;51.958;4.540;2023-12-22T10:05:12;8.00;;;2.87;;
13303;SDS011;6720;51.958;4.540;2023-12-22T10:07:39;6.70;;;2.67;;
13303;SDS011;6720;51.958;4.540;2023-12-22T10:10:07;9.97;;;3.43;;
13303;SDS011;6720;51.958;4.540;2023-12-22T10:12:33;8.93;;;3.00;;
13303;SDS011;6720;51.958;4.540;2023-12-22T10:15:00;8.17;;;3.17;;
13303;SDS011;6720;51.958;4.540;2023-12-22T10:17:26;7.73;;;3.43;;
13303;SDS011;6720;51.958;4.540;2023-12-22T10:19:52;9.43;;;2.87;;
13303;SDS011;6720;51.958;4.540;2023-12-22T10:22:17;9.50;;;2.97;;
13303;SDS011;6720;51.958;4.540;2023-12-22T10:24:44;10.57;;;3.07;;
13303;SDS011;6720;51.958;4.540;2023-12-22T10:27:15;10.03;;;2.90;;
13303;SDS011;6720;51.958;4.540;2023-12-22T10:29:47;10.10;;;3.23;;
13303;SDS011;6720;51.958;4.540;2023-12-22T10:32:18;7.60;;;2.90;;
13303;SDS011;6720;51.958;4.540;2023-12-22T10:34:44;7.87;;;3.23;;
13303;SDS011;6720;51.958;4.540;2023-12-22T10:37:10;8.60;;;2.93;;
13303;SDS011;6720;51.958;4.540;2023-12-22T10:39:38;9.10;;;3.00;;
13303;SDS011;6720;51.958;4.540;2023-12-22T10:42:03;7.13;;;3.17;;
13303;SDS011;6720;51.958;4.540;2023-12-22T10:44:29;11.47;;;3.40;;
13303;SDS011;6720;51.958;4.540;2023-12-22T10:46:55;9.10;;;2.87;;
13303;SDS011;6720;51.958;4.540;2023-12-22T10:49:21;9.00;;;2.87;;
13303;SDS011;6720;51.958;4.540;2023-12-22T10:51:48;8.23;;;2.77;;
13303;SDS011;6720;51.958;4.540;2023-12-22T10:54:14;10.00;;;2.77;;
13303;SDS011;6720;51.958;4.540;2023-12-22T10:56:40;9.67;;;3.23;;
13303;SDS011;6720;51.958;4.540;2023-12-22T10:59:06;15.07;;;3.60;;
13303;SDS011;6720;51.958;4.540;2023-12-22T11:01:32;8.93;;;2.93;;
13303;SDS011;6720;51.958;4.540;2023-12-22T11:04:02;8.33;;;2.93;;
13303;SDS011;6720;51.958;4.540;2023-12-22T11:06:30;9.57;;;2.90;;
13303;SDS011;6720;51.958;4.540;2023-12-22T11:08:59;8.30;;;2.67;;
13303;SDS011;6720;51.958;4.540;2023-12-22T11:11:27;11.10;;;3.17;;
13303;SDS011;6720;51.958;4.540;2023-12-22T11:13:59;8.27;;;2.77;;
13303;SDS011;6720;51.958;4.540;2023-12-22T11:16:29;10.27;;;3.23;;
13303;SDS011;6720;51.958;4.540;2023-12-22T11:18:56;7.80;;;2.87;;
13303;SDS011;6720;51.958;4.540;2023-12-22T11:21:22;7.77;;;2.83;;
13303;SDS011;6720;51.958;4.540;2023-12-22T11:23:48;8.80;;;3.00;;
13303;SDS011;6720;51.958;4.540;2023-12-22T11:26:16;11.27;;;2.93;;
13303;SDS011;6720;51.958;4.540;2023-12-22T11:28:42;7.97;;;3.40;;
13303;SDS011;6720;51.958;4.540;2023-12-22T11:31:09;8.53;;;3.03;;
13303;SDS011;6720;51.958;4.540;2023-12-22T11:33:36;13.37;;;3.50;;
13303;SDS011;6720;51.958;4.540;2023-12-22T11:36:03;8.70;;;3.50;;
13303;SDS011;6720;51.958;4.540;2023-12-22T11:38:30;8.00;;;3.30;;
13303;SDS011;6720;51.958;4.540;2023-12-22T11:40:56;10.33;;;3.50;;
13303;SDS011;6720;51.958;4.540;2023-12-22T11:43:24;9.87;;;3.40;;
13303;SDS011;6720;51.958;4.540;2023-12-22T11:45:50;11.90;;;3.70;;
13303;SDS011;6720;51.958;4.540;2023-12-22T11:48:16;7.50;;;2.80;;
13303;SDS011;6720;51.958;4.540;2023-12-22T11:50:41;10.70;;;3.13;;
13303;SDS011;6720;51.958;4.540;2023-12-22T11:53:19;10.63;;;3.40;;
13303;SDS011;6720;51.958;4.540;2023-12-22T11:55:59;9.93;;;2.97;;
13303;SDS011;6720;51.958;4.540;2023-12-22T12:01:07;8.37;;;2.73;;
13303;SDS011;6720;51.958;4.540;2023-12-22T12:03:38;9.13;;;2.70;;
13303;SDS011;6720;51.958;4.540;2023-12-22T12:08:39;8.80;;;3.20;;
13303;SDS011;6720;51.958;4.540;2023-12-22T12:11:06;14.97;;;3.10;;
13303;SDS011;6720;51.958;4.540;2023-12-22T12:13:33;9.17;;;2.97;;
13303;SDS011;6720;51.958;4.540;2023-12-22T12:15:59;8.50;;;3.10;;
13303;SDS011;6720;51.958;4.540;2023-12-22T12:18:27;12.27;;;3.70;;
13303;SDS011;6720;51.958;4.540;2023-12-22T12:20:54;7.73;;;3.70;;
13303;SDS011;6720;51.958;4.540;2023-12-22T12:23:19;10.13;;;3.30;;
13303;SDS011;6720;51.958;4.540;2023-12-22T12:25:46;10.80;;;3.37;;
13303;SDS011;6720;51.958;4.540;2023-12-22T12:28:12;11.50;;;3.10;;
13303;SDS011;6720;51.958;4.540;2023-12-22T12:30:39;8.67;;;2.77;;
13303;SDS011;6720;51.958;4.540;2023-12-22T12:33:13;11.03;;;3.50;;
13303;SDS011;6720;51.958;4.540;2023-12-22T12:35:39;11.53;;;3.20;;
13303;SDS011;6720;51.958;4.540;2023-12-22T12:38:06;12.23;;;3.17;;
13303;SDS011;6720;51.958;4.540;2023-12-22T12:40:31;9.00;;;3.30;;
13303;SDS011;6720;51.958;4.540;2023-12-22T12:43:00;12.57;;;3.17;;
13303;SDS011;6720;51.958;4.540;2023-12-22T12:45:26;11.57;;;3.07;;
13303;SDS011;6720;51.958;4.540;2023-12-22T12:47:58;10.63;;;3.30;;
13303;SDS011;6720;51.958;4.540;2023-12-22T12:50:25;9.67;;;3.20;;
13303;SDS011;6720;51.958;4.540;2023-12-22T12:52:54;14.37;;;3.67;;
13303;SDS011;6720;51.958;4.540;2023-12-22T12:55:20;13.83;;;3.90;;
13303;SDS011;6720;51.958;4.540;2023-12-22T12:57:53;12.47;;;3.90;;
13303;SDS011;6720;51.958;4.540;2023-12-22T13:00:30;12.93;;;3.40;;
13303;SDS011;6720;51.958;4.540;2023-12-22T13:02:59;13.57;;;3.63;;
13303;SDS011;6720;51.958;4.540;2023-12-22T13:05:27;9.63;;;3.50;;
13303;SDS011;6720;51.958;4.540;2023-12-22T13:08:05;16.60;;;4.13;;
13303;SDS011;6720;51.958;4.540;2023-12-22T13:10:40;11.00;;;3.47;;
13303;SDS011;6720;51.958;4.540;2023-12-22T13:13:06;13.60;;;3.77;;
13303;SDS011;6720;51.958;4.540;2023-12-22T13:15:31;11.90;;;3.47;;
13303;SDS011;6720;51.958;4.540;2023-12-22T13:17:57;11.97;;;3.67;;
13303;SDS011;6720;51.958;4.540;2023-12-22T13:20:23;12.03;;;3.87;;
13303;SDS011;6720;51.958;4.540;2023-12-22T13:22:48;11.87;;;3.97;;
13303;SDS011;6720;51.958;4.540;2023-12-22T13:25:14;10.13;;;3.73;;
13303;SDS011;6720;51.958;4.540;2023-12-22T13:27:43;13.43;;;3.33;;
13303;SDS011;6720;51.958;4.540;2023-12-22T13:30:12;9.20;;;3.57;;
13303;SDS011;6720;51.958;4.540;2023-12-22T13:32:56;9.73;;;3.77;;
13303;SDS011;6720;51.958;4.540;2023-12-22T13:35:25;11.63;;;3.77;;
13303;SDS011;6720;51.958;4.540;2023-12-22T13:37:51;13.63;;;3.43;;
13303;SDS011;6720;51.958;4.540;2023-12-22T13:40:17;12.87;;;3.40;;
13303;SDS011;6720;51.958;4.540;2023-12-22T13:42:43;9.17;;;3.47;;
13303;SDS011;6720;51.958;4.540;2023-12-22T13:45:10;10.43;;;3.70;;
13303;SDS011;6720;51.958;4.540;2023-12-22T13:47:40;11.10;;;3.37;;
13303;SDS011;6720;51.958;4.540;2023-12-22T13:50:14;9.80;;;3.57;;
13303;SDS011;6720;51.958;4.540;2023-12-22T13:52:43;16.33;;;3.47;;
13303;SDS011;6720;51.958;4.540;2023-12-22T13:55:13;15.07;;;4.03;;
13303;SDS011;6720;51.958;4.540;2023-12-22T13:57:40;12.90;;;3.97;;
13303;SDS011;6720;51.958;4.540;2023-12-22T14:02:46;11.93;;;3.77;;
13303;SDS011;6720;51.958;4.540;2023-12-22T14:05:16;15.33;;;3.90;;
13303;SDS011;6720;51.958;4.540;2023-12-22T14:07:44;22.40;;;4.67;;
13303;SDS011;6720;51.958;4.540;2023-12-22T14:10:10;16.27;;;4.47;;
13303;SDS011;6720;51.958;4.540;2023-12-22T14:12:36;13.53;;;4.63;;
13303;SDS011;6720;51.958;4.540;2023-12-22T14:15:14;12.37;;;3.63;;
13303;SDS011;6720;51.958;4.540;2023-12-22T14:17:39;12.50;;;4.03;;
13303;SDS011;6720;51.958;4.540;2023-12-22T14:20:07;11.30;;;3.67;;
13303;SDS011;6720;51.958;4.540;2023-12-22T14:22:35;11.57;;;3.70;;
13303;SDS011;6720;51.958;4.540;2023-12-22T14:25:04;12.40;;;3.93;;
13303;SDS011;6720;51.958;4.540;2023-12-22T14:27:29;16.20;;;4.70;;
13303;SDS011;6720;51.958;4.540;2023-12-22T14:29:55;12.80;;;3.50;;
13303;SDS011;6720;51.958;4.540;2023-12-22T14:32:21;12.60;;;3.67;;
13303;SDS011;6720;51.958;4.540;2023-12-22T14:34:47;14.40;;;3.93;;
13303;SDS011;6720;51.958;4.540;2023-12-22T14:37:13;15.43;;;3.50;;
13303;SDS011;6720;51.958;4.540;2023-12-22T14:39:39;12.57;;;3.67;;
13303;SDS011;6720;51.958;4.540;2023-12-22T14:42:05;12.03;;;3.93;;
13303;SDS011;6720;51.958;4.540;2023-12-22T14:44:30;12.50;;;3.90;;
13303;SDS011;6720;51.958;4.540;2023-12-22T14:46:56;15.33;;;4.17;;
13303;SDS011;6720;51.958;4.540;2023-12-22T14:49:22;14.43;;;3.53;;
13303;SDS011;6720;51.958;4.540;2023-12-22T14:51:47;9.00;;;3.63;;
13303;SDS011;6720;51.958;4.540;2023-12-22T14:54:17;10.17;;;3.47;;
13303;SDS011;6720;51.958;4.540;2023-12-22T14:56:42;13.97;;;4.37;;
13303;SDS011;6720;51.958;4.540;2023-12-22T14:59:08;12.27;;;3.80;;
13303;SDS011;6720;51.958;4.540;2023-12-22T15:01:35;16.00;;;3.70;;
13303;SDS011;6720;51.958;4.540;2023-12-22T15:04:00;15.50;;;4.17;;
13303;SDS011;6720;51.958;4.540;2023-12-22T15:06:27;13.63;;;3.87;;